sensor_id;sensor_type;location;lat;lon;timestamp;temperature;humidity
53294;DHT22;39181;53.440;5.644;2023-07-20T00:02:20;14.20;99.90
53294;DHT22;39181;53.440;5.644;2023-07-20T00:04:45;14.20;99.90
53294;DHT22;39181;53.440;5.644;2023-07-20T00:07:11;14.20;99.90
53294;DHT22;39181;53.440;5.644;2023-07-20T00:09:37;14.20;99.90
53294;DHT22;39181;53.440;5.644;2023-07-20T00:12:02;14.10;99.90
53294;DHT22;39181;53.440;5.644;2023-07-20T00:14:28;14.10;99.90
53294;DHT22;39181;53.440;5.644;2023-07-20T00:16:55;14.10;99.90
53294;DHT22;39181;53.440;5.644;2023-07-20T00:19:25;14.10;99.90
53294;DHT22;39181;53.440;5.644;2023-07-20T00:21:52;14.10;99.90
53294;DHT22;39181;53.440;5.644;2023-07-20T00:24:18;14.10;99.90
53294;DHT22;39181;53.440;5.644;2023-07-20T00:26:44;14.10;99.90
53294;DHT22;39181;53.440;5.644;2023-07-20T00:29:10;14.10;99.90
53294;DHT22;39181;53.440;5.644;2023-07-20T00:31:35;14.10;99.90
53294;DHT22;39181;53.440;5.644;2023-07-20T00:34:03;14.10;99.90
53294;DHT22;39181;53.440;5.644;2023-07-20T00:36:28;14.10;99.90
53294;DHT22;39181;53.440;5.644;2023-07-20T00:38:54;14.10;99.90
53294;DHT22;39181;53.440;5.644;2023-07-20T00:41:20;14.10;99.90
53294;DHT22;39181;53.440;5.644;2023-07-20T00:43:45;14.20;99.90
53294;DHT22;39181;53.440;5.644;2023-07-20T00:46:11;14.20;99.90
53294;DHT22;39181;53.440;5.644;2023-07-20T00:48:37;14.20;99.90
53294;DHT22;39181;53.440;5.644;2023-07-20T00:51:04;14.20;99.90
53294;DHT22;39181;53.440;5.644;2023-07-20T00:53:30;14.20;99.90
53294;DHT22;39181;53.440;5.644;2023-07-20T00:55:56;14.20;99.90
53294;DHT22;39181;53.440;5.644;2023-07-20T00:58:22;14.20;99.90
53294;DHT22;39181;53.440;5.644;2023-07-20T01:00:48;14.20;99.90
53294;DHT22;39181;53.440;5.644;2023-07-20T01:03:14;14.20;99.90
53294;DHT22;39181;53.440;5.644;2023-07-20T01:08:30;14.30;99.90
53294;DHT22;39181;53.440;5.644;2023-07-20T01:11:05;14.40;99.90
53294;DHT22;39181;53.440;5.644;2023-07-20T01:13:32;14.30;99.90
53294;DHT22;39181;53.440;5.644;2023-07-20T01:16:01;14.30;99.90
53294;DHT22;39181;53.440;5.644;2023-07-20T01:18:27;14.30;99.90
53294;DHT22;39181;53.440;5.644;2023-07-20T01:20:59;14.30;99.90
53294;DHT22;39181;53.440;5.644;2023-07-20T01:23:43;14.30;99.90
53294;DHT22;39181;53.440;5.644;2023-07-20T01:26:45;14.20;99.90
53294;DHT22;39181;53.440;5.644;2023-07-20T01:32:10;14.30;99.90
53294;DHT22;39181;53.440;5.644;2023-07-20T01:34:36;14.30;99.90
53294;DHT22;39181;53.440;5.644;2023-07-20T01:37:03;14.30;99.90
53294;DHT22;39181;53.440;5.644;2023-07-20T01:39:29;14.30;99.90
53294;DHT22;39181;53.440;5.644;2023-07-20T01:41:55;14.30;99.90
53294;DHT22;39181;53.440;5.644;2023-07-20T01:44:21;14.30;99.90
53294;DHT22;39181;53.440;5.644;2023-07-20T01:46:48;14.30;99.90
53294;DHT22;39181;53.440;5.644;2023-07-20T01:49:14;14.30;99.90
53294;DHT22;39181;53.440;5.644;2023-07-20T01:51:39;14.30;99.90
53294;DHT22;39181;53.440;5.644;2023-07-20T01:54:05;14.30;99.90
53294;DHT22;39181;53.440;5.644;2023-07-20T01:56:31;14.30;99.90
53294;DHT22;39181;53.440;5.644;2023-07-20T01:58:56;14.30;99.90
53294;DHT22;39181;53.440;5.644;2023-07-20T02:01:22;14.30;99.90
53294;DHT22;39181;53.440;5.644;2023-07-20T02:03:48;14.20;99.90
53294;DHT22;39181;53.440;5.644;2023-07-20T02:06:14;14.30;99.90
53294;DHT22;39181;53.440;5.644;2023-07-20T02:08:39;14.30;99.90
53294;DHT22;39181;53.440;5.644;2023-07-20T02:11:05;14.40;99.90
53294;DHT22;39181;53.440;5.644;2023-07-20T02:13:30;14.40;99.90
53294;DHT22;39181;53.440;5.644;2023-07-20T02:15:56;14.40;99.90
53294;DHT22;39181;53.440;5.644;2023-07-20T02:18:22;14.40;99.90
53294;DHT22;39181;53.440;5.644;2023-07-20T02:20:47;14.40;99.90
53294;DHT22;39181;53.440;5.644;2023-07-20T02:23:13;14.40;99.90
53294;DHT22;39181;53.440;5.644;2023-07-20T02:25:38;14.40;99.90
53294;DHT22;39181;53.440;5.644;2023-07-20T02:28:04;14.40;99.90
53294;DHT22;39181;53.440;5.644;2023-07-20T02:30:30;14.40;99.90
53294;DHT22;39181;53.440;5.644;2023-07-20T02:32:56;14.30;99.90
53294;DHT22;39181;53.440;5.644;2023-07-20T02:35:24;14.30;99.90
53294;DHT22;39181;53.440;5.644;2023-07-20T02:37:49;14.30;99.90
53294;DHT22;39181;53.440;5.644;2023-07-20T02:40:15;14.20;99.90
53294;DHT22;39181;53.440;5.644;2023-07-20T02:42:40;14.20;99.90
53294;DHT22;39181;53.440;5.644;2023-07-20T02:45:06;14.20;99.90
53294;DHT22;39181;53.440;5.644;2023-07-20T02:47:32;14.20;99.90
53294;DHT22;39181;53.440;5.644;2023-07-20T02:49:59;14.30;99.90
53294;DHT22;39181;53.440;5.644;2023-07-20T02:52:25;14.20;99.90
53294;DHT22;39181;53.440;5.644;2023-07-20T02:54:50;14.20;99.90
53294;DHT22;39181;53.440;5.644;2023-07-20T02:57:16;14.10;99.90
53294;DHT22;39181;53.440;5.644;2023-07-20T02:59:41;14.10;99.90
53294;DHT22;39181;53.440;5.644;2023-07-20T03:02:07;14.10;99.90
53294;DHT22;39181;53.440;5.644;2023-07-20T03:04:35;14.10;99.90
53294;DHT22;39181;53.440;5.644;2023-07-20T03:07:03;14.10;99.90
53294;DHT22;39181;53.440;5.644;2023-07-20T03:09:29;14.10;99.90
53294;DHT22;39181;53.440;5.644;2023-07-20T03:11:54;14.10;99.90
53294;DHT22;39181;53.440;5.644;2023-07-20T03:14:20;14.10;99.90
53294;DHT22;39181;53.440;5.644;2023-07-20T03:16:46;14.20;99.90
53294;DHT22;39181;53.440;5.644;2023-07-20T03:19:11;14.30;99.90
53294;DHT22;39181;53.440;5.644;2023-07-20T03:21:37;14.30;99.90
53294;DHT22;39181;53.440;5.644;2023-07-20T03:24:09;14.30;99.90
53294;DHT22;39181;53.440;5.644;2023-07-20T03:26:35;14.40;99.90
53294;DHT22;39181;53.440;5.644;2023-07-20T03:29:01;14.40;99.90
53294;DHT22;39181;53.440;5.644;2023-07-20T03:31:26;14.30;99.90
53294;DHT22;39181;53.440;5.644;2023-07-20T03:33:52;14.60;99.90
53294;DHT22;39181;53.440;5.644;2023-07-20T03:36:18;14.60;99.90
53294;DHT22;39181;53.440;5.644;2023-07-20T03:38:43;14.60;99.90
53294;DHT22;39181;53.440;5.644;2023-07-20T03:41:09;14.60;99.90
53294;DHT22;39181;53.440;5.644;2023-07-20T03:43:34;14.70;99.90
53294;DHT22;39181;53.440;5.644;2023-07-20T03:46:00;14.70;99.90
53294;DHT22;39181;53.440;5.644;2023-07-20T03:48:26;14.70;99.90
53294;DHT22;39181;53.440;5.644;2023-07-20T03:50:53;14.60;99.90
53294;DHT22;39181;53.440;5.644;2023-07-20T03:53:19;14.60;99.90
53294;DHT22;39181;53.440;5.644;2023-07-20T03:55:45;14.60;99.90
53294;DHT22;39181;53.440;5.644;2023-07-20T03:58:12;14.60;99.90
53294;DHT22;39181;53.440;5.644;2023-07-20T04:00:38;14.60;99.90
53294;DHT22;39181;53.440;5.644;2023-07-20T04:03:04;14.50;99.90
53294;DHT22;39181;53.440;5.644;2023-07-20T04:05:29;14.60;99.90
53294;DHT22;39181;53.440;5.644;2023-07-20T04:07:55;14.60;99.90
53294;DHT22;39181;53.440;5.644;2023-07-20T04:10:20;14.60;99.90
53294;DHT22;39181;53.440;5.644;2023-07-20T04:12:46;14.70;99.90
53294;DHT22;39181;53.440;5.644;2023-07-20T04:15:15;14.70;99.90
53294;DHT22;39181;53.440;5.644;2023-07-20T04:17:41;14.70;99.90
53294;DHT22;39181;53.440;5.644;2023-07-20T04:20:08;14.70;99.90
53294;DHT22;39181;53.440;5.644;2023-07-20T04:22:34;14.70;99.90
53294;DHT22;39181;53.440;5.644;2023-07-20T04:24:59;14.70;99.90
53294;DHT22;39181;53.440;5.644;2023-07-20T04:27:25;14.80;99.90
53294;DHT22;39181;53.440;5.644;2023-07-20T04:29:51;14.70;99.90
53294;DHT22;39181;53.440;5.644;2023-07-20T04:32:17;14.80;99.90
53294;DHT22;39181;53.440;5.644;2023-07-20T04:34:43;14.90;99.90
53294;DHT22;39181;53.440;5.644;2023-07-20T04:37:08;14.90;99.90
53294;DHT22;39181;53.440;5.644;2023-07-20T04:39:34;15.00;99.90
53294;DHT22;39181;53.440;5.644;2023-07-20T04:41:59;15.00;99.90
53294;DHT22;39181;53.440;5.644;2023-07-20T04:44:25;15.00;99.90
53294;DHT22;39181;53.440;5.644;2023-07-20T04:46:51;15.00;99.90
53294;DHT22;39181;53.440;5.644;2023-07-20T04:49:16;15.00;99.90
53294;DHT22;39181;53.440;5.644;2023-07-20T04:51:42;15.10;99.90
53294;DHT22;39181;53.440;5.644;2023-07-20T04:54:07;15.10;99.90
53294;DHT22;39181;53.440;5.644;2023-07-20T04:56:33;15.10;99.90
53294;DHT22;39181;53.440;5.644;2023-07-20T04:58:59;15.20;99.90
53294;DHT22;39181;53.440;5.644;2023-07-20T05:01:25;15.30;99.90
53294;DHT22;39181;53.440;5.644;2023-07-20T05:03:52;15.40;99.90
53294;DHT22;39181;53.440;5.644;2023-07-20T05:06:18;15.50;99.90
53294;DHT22;39181;53.440;5.644;2023-07-20T05:08:43;15.60;99.90
53294;DHT22;39181;53.440;5.644;2023-07-20T05:11:09;15.60;99.90
53294;DHT22;39181;53.440;5.644;2023-07-20T05:13:36;15.80;99.90
53294;DHT22;39181;53.440;5.644;2023-07-20T05:16:01;15.90;99.90
53294;DHT22;39181;53.440;5.644;2023-07-20T05:18:27;15.90;99.90
53294;DHT22;39181;53.440;5.644;2023-07-20T05:20:53;16.10;99.90
53294;DHT22;39181;53.440;5.644;2023-07-20T05:23:20;16.20;99.90
53294;DHT22;39181;53.440;5.644;2023-07-20T05:25:47;16.30;99.90
53294;DHT22;39181;53.440;5.644;2023-07-20T05:28:12;16.40;99.90
53294;DHT22;39181;53.440;5.644;2023-07-20T05:30:38;16.40;99.90
53294;DHT22;39181;53.440;5.644;2023-07-20T05:33:05;16.30;99.90
53294;DHT22;39181;53.440;5.644;2023-07-20T05:35:30;16.30;99.90
53294;DHT22;39181;53.440;5.644;2023-07-20T05:37:56;16.50;99.90
53294;DHT22;39181;53.440;5.644;2023-07-20T05:40:23;16.50;99.90
53294;DHT22;39181;53.440;5.644;2023-07-20T05:42:48;16.60;99.90
53294;DHT22;39181;53.440;5.644;2023-07-20T05:45:17;16.70;99.90
53294;DHT22;39181;53.440;5.644;2023-07-20T05:47:43;16.70;99.90
53294;DHT22;39181;53.440;5.644;2023-07-20T05:50:09;16.90;99.90
53294;DHT22;39181;53.440;5.644;2023-07-20T05:52:34;16.90;99.90
53294;DHT22;39181;53.440;5.644;2023-07-20T05:55:00;17.00;99.90
53294;DHT22;39181;53.440;5.644;2023-07-20T05:57:25;17.00;99.90
53294;DHT22;39181;53.440;5.644;2023-07-20T05:59:51;17.10;99.90
53294;DHT22;39181;53.440;5.644;2023-07-20T06:02:17;17.20;99.90
53294;DHT22;39181;53.440;5.644;2023-07-20T06:04:42;17.20;99.90
53294;DHT22;39181;53.440;5.644;2023-07-20T06:07:08;17.30;99.90
53294;DHT22;39181;53.440;5.644;2023-07-20T06:09:34;17.40;99.90
53294;DHT22;39181;53.440;5.644;2023-07-20T06:11:59;17.40;99.90
53294;DHT22;39181;53.440;5.644;2023-07-20T06:14:25;17.40;99.90
53294;DHT22;39181;53.440;5.644;2023-07-20T06:16:51;17.40;99.90
53294;DHT22;39181;53.440;5.644;2023-07-20T06:19:16;17.10;99.90
53294;DHT22;39181;53.440;5.644;2023-07-20T06:21:42;17.20;99.90
53294;DHT22;39181;53.440;5.644;2023-07-20T06:24:08;17.30;99.90
53294;DHT22;39181;53.440;5.644;2023-07-20T06:26:34;17.30;99.90
53294;DHT22;39181;53.440;5.644;2023-07-20T06:29:06;17.50;99.90
53294;DHT22;39181;53.440;5.644;2023-07-20T06:31:37;17.70;99.90
53294;DHT22;39181;53.440;5.644;2023-07-20T06:34:02;18.10;99.90
53294;DHT22;39181;53.440;5.644;2023-07-20T06:36:28;18.30;99.90
53294;DHT22;39181;53.440;5.644;2023-07-20T06:38:56;18.50;99.90
53294;DHT22;39181;53.440;5.644;2023-07-20T06:41:22;18.80;99.90
53294;DHT22;39181;53.440;5.644;2023-07-20T06:43:48;19.50;99.90
53294;DHT22;39181;53.440;5.644;2023-07-20T06:46:13;20.40;99.90
53294;DHT22;39181;53.440;5.644;2023-07-20T06:48:39;21.20;99.90
53294;DHT22;39181;53.440;5.644;2023-07-20T06:51:05;21.60;99.90
53294;DHT22;39181;53.440;5.644;2023-07-20T06:53:30;22.00;99.90
53294;DHT22;39181;53.440;5.644;2023-07-20T06:55:56;22.00;99.90
53294;DHT22;39181;53.440;5.644;2023-07-20T06:58:23;22.20;99.90
53294;DHT22;39181;53.440;5.644;2023-07-20T07:00:48;22.30;99.90
53294;DHT22;39181;53.440;5.644;2023-07-20T07:03:14;22.40;99.90
53294;DHT22;39181;53.440;5.644;2023-07-20T07:05:40;22.10;99.90
53294;DHT22;39181;53.440;5.644;2023-07-20T07:08:05;22.00;99.90
53294;DHT22;39181;53.440;5.644;2023-07-20T07:10:31;21.80;99.90
53294;DHT22;39181;53.440;5.644;2023-07-20T07:12:57;21.90;99.90
53294;DHT22;39181;53.440;5.644;2023-07-20T07:15:26;22.00;99.90
53294;DHT22;39181;53.440;5.644;2023-07-20T07:17:52;22.00;99.90
53294;DHT22;39181;53.440;5.644;2023-07-20T07:20:18;21.90;99.90
53294;DHT22;39181;53.440;5.644;2023-07-20T07:22:44;21.90;99.90
53294;DHT22;39181;53.440;5.644;2023-07-20T07:25:10;21.90;99.90
53294;DHT22;39181;53.440;5.644;2023-07-20T07:27:36;21.70;99.90
53294;DHT22;39181;53.440;5.644;2023-07-20T07:30:03;21.90;99.90
53294;DHT22;39181;53.440;5.644;2023-07-20T07:32:28;21.80;99.90
53294;DHT22;39181;53.440;5.644;2023-07-20T07:34:54;22.00;99.90
53294;DHT22;39181;53.440;5.644;2023-07-20T07:37:20;21.90;99.90
53294;DHT22;39181;53.440;5.644;2023-07-20T07:39:46;21.80;99.90
53294;DHT22;39181;53.440;5.644;2023-07-20T07:42:12;22.10;99.90
53294;DHT22;39181;53.440;5.644;2023-07-20T07:44:38;22.10;99.90
53294;DHT22;39181;53.440;5.644;2023-07-20T07:47:04;22.00;99.90
53294;DHT22;39181;53.440;5.644;2023-07-20T07:49:29;22.00;99.90
53294;DHT22;39181;53.440;5.644;2023-07-20T07:51:56;22.00;99.90
53294;DHT22;39181;53.440;5.644;2023-07-20T07:54:22;21.90;99.90
53294;DHT22;39181;53.440;5.644;2023-07-20T07:56:48;21.80;99.90
53294;DHT22;39181;53.440;5.644;2023-07-20T07:59:13;21.90;99.90
53294;DHT22;39181;53.440;5.644;2023-07-20T08:01:39;21.60;99.90
53294;DHT22;39181;53.440;5.644;2023-07-20T08:04:05;21.70;99.90
53294;DHT22;39181;53.440;5.644;2023-07-20T08:06:30;21.70;99.90
53294;DHT22;39181;53.440;5.644;2023-07-20T08:08:57;21.70;99.90
53294;DHT22;39181;53.440;5.644;2023-07-20T08:11:23;21.70;99.90
53294;DHT22;39181;53.440;5.644;2023-07-20T08:13:49;21.70;99.90
53294;DHT22;39181;53.440;5.644;2023-07-20T08:16:14;21.80;99.90
53294;DHT22;39181;53.440;5.644;2023-07-20T08:18:40;21.90;99.90
53294;DHT22;39181;53.440;5.644;2023-07-20T08:21:06;22.00;99.90
53294;DHT22;39181;53.440;5.644;2023-07-20T08:23:31;22.00;99.90
53294;DHT22;39181;53.440;5.644;2023-07-20T08:25:57;22.00;99.90
53294;DHT22;39181;53.440;5.644;2023-07-20T08:28:22;22.00;99.90
53294;DHT22;39181;53.440;5.644;2023-07-20T08:30:49;22.00;99.90
53294;DHT22;39181;53.440;5.644;2023-07-20T08:33:16;22.00;99.90
53294;DHT22;39181;53.440;5.644;2023-07-20T08:35:43;22.00;99.90
53294;DHT22;39181;53.440;5.644;2023-07-20T08:38:08;22.00;99.90
53294;DHT22;39181;53.440;5.644;2023-07-20T08:40:40;22.00;99.90
53294;DHT22;39181;53.440;5.644;2023-07-20T08:43:06;22.10;99.90
53294;DHT22;39181;53.440;5.644;2023-07-20T08:45:33;22.00;99.90
53294;DHT22;39181;53.440;5.644;2023-07-20T08:48:00;21.90;99.90
53294;DHT22;39181;53.440;5.644;2023-07-20T08:50:31;21.80;99.90
53294;DHT22;39181;53.440;5.644;2023-07-20T08:52:58;21.70;99.90
53294;DHT22;39181;53.440;5.644;2023-07-20T08:55:28;21.60;99.90
53294;DHT22;39181;53.440;5.644;2023-07-20T08:57:58;21.40;99.90
53294;DHT22;39181;53.440;5.644;2023-07-20T09:00:25;21.50;99.90
53294;DHT22;39181;53.440;5.644;2023-07-20T09:02:55;21.70;99.90
53294;DHT22;39181;53.440;5.644;2023-07-20T09:05:23;21.90;99.90
53294;DHT22;39181;53.440;5.644;2023-07-20T09:07:51;21.90;99.90
53294;DHT22;39181;53.440;5.644;2023-07-20T09:10:20;22.00;99.90
53294;DHT22;39181;53.440;5.644;2023-07-20T09:12:46;22.00;99.90
53294;DHT22;39181;53.440;5.644;2023-07-20T09:15:12;22.20;99.90
53294;DHT22;39181;53.440;5.644;2023-07-20T09:17:38;22.20;99.90
53294;DHT22;39181;53.440;5.644;2023-07-20T09:20:08;22.30;99.90
53294;DHT22;39181;53.440;5.644;2023-07-20T09:22:36;22.40;99.90
53294;DHT22;39181;53.440;5.644;2023-07-20T09:25:12;22.10;99.90
53294;DHT22;39181;53.440;5.644;2023-07-20T09:27:41;21.70;99.90
53294;DHT22;39181;53.440;5.644;2023-07-20T09:30:08;21.70;99.90
53294;DHT22;39181;53.440;5.644;2023-07-20T09:32:40;21.70;99.90
53294;DHT22;39181;53.440;5.644;2023-07-20T09:35:10;21.70;99.90
53294;DHT22;39181;53.440;5.644;2023-07-20T09:37:37;21.90;99.90
53294;DHT22;39181;53.440;5.644;2023-07-20T09:40:06;22.20;99.90
53294;DHT22;39181;53.440;5.644;2023-07-20T09:42:32;22.40;99.90
53294;DHT22;39181;53.440;5.644;2023-07-20T09:44:58;22.30;99.90
53294;DHT22;39181;53.440;5.644;2023-07-20T09:47:24;22.50;99.90
53294;DHT22;39181;53.440;5.644;2023-07-20T09:49:54;22.40;99.90
53294;DHT22;39181;53.440;5.644;2023-07-20T09:52:21;22.70;99.90
53294;DHT22;39181;53.440;5.644;2023-07-20T09:54:47;22.40;99.90
53294;DHT22;39181;53.440;5.644;2023-07-20T09:57:12;22.30;99.90
53294;DHT22;39181;53.440;5.644;2023-07-20T09:59:39;22.00;99.90
53294;DHT22;39181;53.440;5.644;2023-07-20T10:02:12;22.00;99.90
53294;DHT22;39181;53.440;5.644;2023-07-20T10:04:43;22.10;99.90
53294;DHT22;39181;53.440;5.644;2023-07-20T10:07:10;22.30;99.90
53294;DHT22;39181;53.440;5.644;2023-07-20T10:09:39;22.30;99.90
53294;DHT22;39181;53.440;5.644;2023-07-20T10:12:07;22.00;99.90
53294;DHT22;39181;53.440;5.644;2023-07-20T10:14:38;21.70;99.90
53294;DHT22;39181;53.440;5.644;2023-07-20T10:17:07;21.70;99.90
53294;DHT22;39181;53.440;5.644;2023-07-20T10:19:43;22.00;99.90
53294;DHT22;39181;53.440;5.644;2023-07-20T10:22:26;22.30;99.90
53294;DHT22;39181;53.440;5.644;2023-07-20T10:24:53;22.50;99.90
53294;DHT22;39181;53.440;5.644;2023-07-20T10:27:20;22.70;99.90
53294;DHT22;39181;53.440;5.644;2023-07-20T10:29:47;22.80;99.90
53294;DHT22;39181;53.440;5.644;2023-07-20T10:32:13;22.90;99.90
53294;DHT22;39181;53.440;5.644;2023-07-20T10:34:39;23.10;99.90
53294;DHT22;39181;53.440;5.644;2023-07-20T10:37:04;23.20;99.90
53294;DHT22;39181;53.440;5.644;2023-07-20T10:39:33;23.10;99.90
53294;DHT22;39181;53.440;5.644;2023-07-20T10:42:06;23.20;99.90
53294;DHT22;39181;53.440;5.644;2023-07-20T10:44:32;23.40;99.90
53294;DHT22;39181;53.440;5.644;2023-07-20T10:47:02;23.50;99.90
53294;DHT22;39181;53.440;5.644;2023-07-20T10:49:28;23.30;99.90
53294;DHT22;39181;53.440;5.644;2023-07-20T10:51:59;23.30;99.90
53294;DHT22;39181;53.440;5.644;2023-07-20T10:56:55;23.40;99.90
53294;DHT22;39181;53.440;5.644;2023-07-20T11:01:50;23.20;99.90
53294;DHT22;39181;53.440;5.644;2023-07-20T11:07:03;23.30;99.90
53294;DHT22;39181;53.440;5.644;2023-07-20T11:09:34;23.40;99.90
53294;DHT22;39181;53.440;5.644;2023-07-20T11:12:13;23.40;99.90
53294;DHT22;39181;53.440;5.644;2023-07-20T11:14:43;23.50;99.90
53294;DHT22;39181;53.440;5.644;2023-07-20T11:17:13;23.40;99.90
53294;DHT22;39181;53.440;5.644;2023-07-20T11:19:40;23.40;99.90
53294;DHT22;39181;53.440;5.644;2023-07-20T11:22:06;23.30;99.90
53294;DHT22;39181;53.440;5.644;2023-07-20T11:24:33;23.40;99.90
53294;DHT22;39181;53.440;5.644;2023-07-20T11:26:59;23.50;99.90
53294;DHT22;39181;53.440;5.644;2023-07-20T11:29:26;23.50;99.90
53294;DHT22;39181;53.440;5.644;2023-07-20T11:31:52;23.40;99.90
53294;DHT22;39181;53.440;5.644;2023-07-20T11:34:19;23.30;99.90
53294;DHT22;39181;53.440;5.644;2023-07-20T11:36:47;23.20;99.90
53294;DHT22;39181;53.440;5.644;2023-07-20T11:39:14;23.10;99.90
53294;DHT22;39181;53.440;5.644;2023-07-20T11:41:47;23.00;99.90
53294;DHT22;39181;53.440;5.644;2023-07-20T11:44:13;22.80;99.90
53294;DHT22;39181;53.440;5.644;2023-07-20T11:46:41;22.70;99.90
53294;DHT22;39181;53.440;5.644;2023-07-20T11:49:07;22.80;99.90
53294;DHT22;39181;53.440;5.644;2023-07-20T11:51:33;22.80;99.90
53294;DHT22;39181;53.440;5.644;2023-07-20T11:54:01;22.70;99.90
53294;DHT22;39181;53.440;5.644;2023-07-20T11:56:27;22.70;99.90
53294;DHT22;39181;53.440;5.644;2023-07-20T11:59:00;23.00;99.90
53294;DHT22;39181;53.440;5.644;2023-07-20T12:01:27;23.10;99.90
53294;DHT22;39181;53.440;5.644;2023-07-20T12:04:01;23.30;99.90
53294;DHT22;39181;53.440;5.644;2023-07-20T12:06:28;23.20;99.90
53294;DHT22;39181;53.440;5.644;2023-07-20T12:08:55;23.20;99.90
53294;DHT22;39181;53.440;5.644;2023-07-20T12:11:38;23.10;99.90
53294;DHT22;39181;53.440;5.644;2023-07-20T12:14:07;22.80;99.90
53294;DHT22;39181;53.440;5.644;2023-07-20T12:16:33;22.90;99.90
53294;DHT22;39181;53.440;5.644;2023-07-20T12:19:06;22.80;99.90
53294;DHT22;39181;53.440;5.644;2023-07-20T12:21:34;22.80;99.90
53294;DHT22;39181;53.440;5.644;2023-07-20T12:24:00;22.80;99.90
53294;DHT22;39181;53.440;5.644;2023-07-20T12:26:28;22.70;99.90
53294;DHT22;39181;53.440;5.644;2023-07-20T12:28:54;22.80;99.90
53294;DHT22;39181;53.440;5.644;2023-07-20T12:31:21;22.90;99.90
53294;DHT22;39181;53.440;5.644;2023-07-20T12:33:48;23.00;99.90
53294;DHT22;39181;53.440;5.644;2023-07-20T12:36:14;22.90;99.90
53294;DHT22;39181;53.440;5.644;2023-07-20T12:38:40;23.10;99.90
53294;DHT22;39181;53.440;5.644;2023-07-20T12:41:07;23.00;99.90
53294;DHT22;39181;53.440;5.644;2023-07-20T12:43:33;23.00;99.90
53294;DHT22;39181;53.440;5.644;2023-07-20T12:45:59;23.00;99.90
53294;DHT22;39181;53.440;5.644;2023-07-20T12:48:24;22.80;99.90
53294;DHT22;39181;53.440;5.644;2023-07-20T12:50:50;22.80;99.90
53294;DHT22;39181;53.440;5.644;2023-07-20T12:53:16;22.80;99.90
53294;DHT22;39181;53.440;5.644;2023-07-20T12:55:42;22.60;99.90
53294;DHT22;39181;53.440;5.644;2023-07-20T12:58:08;22.60;99.90
53294;DHT22;39181;53.440;5.644;2023-07-20T13:00:34;22.50;99.90
53294;DHT22;39181;53.440;5.644;2023-07-20T13:03:00;22.60;99.90
53294;DHT22;39181;53.440;5.644;2023-07-20T13:05:33;22.50;99.90
53294;DHT22;39181;53.440;5.644;2023-07-20T13:07:58;22.30;99.90
53294;DHT22;39181;53.440;5.644;2023-07-20T13:10:24;22.30;99.90
53294;DHT22;39181;53.440;5.644;2023-07-20T13:12:50;22.40;99.90
53294;DHT22;39181;53.440;5.644;2023-07-20T13:15:17;22.20;99.90
53294;DHT22;39181;53.440;5.644;2023-07-20T13:17:42;22.30;99.90
53294;DHT22;39181;53.440;5.644;2023-07-20T13:20:10;22.40;99.90
53294;DHT22;39181;53.440;5.644;2023-07-20T13:22:40;22.20;99.90
53294;DHT22;39181;53.440;5.644;2023-07-20T13:25:06;22.20;99.90
53294;DHT22;39181;53.440;5.644;2023-07-20T13:27:33;22.20;99.90
53294;DHT22;39181;53.440;5.644;2023-07-20T13:29:59;22.20;99.90
53294;DHT22;39181;53.440;5.644;2023-07-20T13:32:26;22.20;99.90
53294;DHT22;39181;53.440;5.644;2023-07-20T13:34:52;22.30;99.90
53294;DHT22;39181;53.440;5.644;2023-07-20T13:37:18;22.20;99.90
53294;DHT22;39181;53.440;5.644;2023-07-20T13:39:44;22.20;99.90
53294;DHT22;39181;53.440;5.644;2023-07-20T13:42:10;22.00;99.90
53294;DHT22;39181;53.440;5.644;2023-07-20T13:44:37;22.10;99.90
53294;DHT22;39181;53.440;5.644;2023-07-20T13:47:03;22.00;99.90
53294;DHT22;39181;53.440;5.644;2023-07-20T13:49:30;21.90;99.90
53294;DHT22;39181;53.440;5.644;2023-07-20T13:51:56;21.80;99.90
53294;DHT22;39181;53.440;5.644;2023-07-20T13:54:23;21.90;99.90
53294;DHT22;39181;53.440;5.644;2023-07-20T13:56:48;21.90;99.90
53294;DHT22;39181;53.440;5.644;2023-07-20T13:59:14;21.70;99.90
53294;DHT22;39181;53.440;5.644;2023-07-20T14:01:39;21.80;99.90
53294;DHT22;39181;53.440;5.644;2023-07-20T14:04:08;21.70;99.90
53294;DHT22;39181;53.440;5.644;2023-07-20T14:06:34;21.60;99.90
53294;DHT22;39181;53.440;5.644;2023-07-20T14:09:00;21.60;99.90
53294;DHT22;39181;53.440;5.644;2023-07-20T14:11:26;21.70;99.90
53294;DHT22;39181;53.440;5.644;2023-07-20T14:13:52;21.60;99.90
53294;DHT22;39181;53.440;5.644;2023-07-20T14:16:21;21.60;99.90
53294;DHT22;39181;53.440;5.644;2023-07-20T14:18:47;21.60;99.90
53294;DHT22;39181;53.440;5.644;2023-07-20T14:21:14;21.70;99.90
53294;DHT22;39181;53.440;5.644;2023-07-20T14:23:40;21.70;99.90
53294;DHT22;39181;53.440;5.644;2023-07-20T14:26:06;21.80;99.90
53294;DHT22;39181;53.440;5.644;2023-07-20T14:28:33;21.80;99.90
53294;DHT22;39181;53.440;5.644;2023-07-20T14:30:58;21.80;99.90
53294;DHT22;39181;53.440;5.644;2023-07-20T14:33:24;21.70;99.90
53294;DHT22;39181;53.440;5.644;2023-07-20T14:35:50;21.80;99.90
53294;DHT22;39181;53.440;5.644;2023-07-20T14:38:15;21.70;99.90
53294;DHT22;39181;53.440;5.644;2023-07-20T14:40:41;21.60;99.90
53294;DHT22;39181;53.440;5.644;2023-07-20T14:43:07;21.40;99.90
53294;DHT22;39181;53.440;5.644;2023-07-20T14:45:32;21.50;99.90
53294;DHT22;39181;53.440;5.644;2023-07-20T14:47:58;21.40;99.90
53294;DHT22;39181;53.440;5.644;2023-07-20T14:50:24;21.50;99.90
53294;DHT22;39181;53.440;5.644;2023-07-20T14:52:50;21.50;99.90
53294;DHT22;39181;53.440;5.644;2023-07-20T14:55:15;21.40;99.90
53294;DHT22;39181;53.440;5.644;2023-07-20T14:57:42;21.30;99.90
53294;DHT22;39181;53.440;5.644;2023-07-20T15:00:08;21.20;99.90
53294;DHT22;39181;53.440;5.644;2023-07-20T15:02:36;21.20;99.90
53294;DHT22;39181;53.440;5.644;2023-07-20T15:05:03;21.20;99.90
53294;DHT22;39181;53.440;5.644;2023-07-20T15:07:29;21.30;99.90
53294;DHT22;39181;53.440;5.644;2023-07-20T15:09:54;21.30;99.90
53294;DHT22;39181;53.440;5.644;2023-07-20T15:12:20;21.40;99.90
53294;DHT22;39181;53.440;5.644;2023-07-20T15:15:04;21.40;99.90
53294;DHT22;39181;53.440;5.644;2023-07-20T15:17:31;21.40;99.90
53294;DHT22;39181;53.440;5.644;2023-07-20T15:19:57;21.40;99.90
53294;DHT22;39181;53.440;5.644;2023-07-20T15:22:23;21.40;99.90
53294;DHT22;39181;53.440;5.644;2023-07-20T15:24:48;21.40;99.90
53294;DHT22;39181;53.440;5.644;2023-07-20T15:27:14;21.20;99.90
53294;DHT22;39181;53.440;5.644;2023-07-20T15:29:39;21.10;99.90
53294;DHT22;39181;53.440;5.644;2023-07-20T15:32:05;21.10;99.90
53294;DHT22;39181;53.440;5.644;2023-07-20T15:34:32;21.10;99.90
53294;DHT22;39181;53.440;5.644;2023-07-20T15:36:57;21.00;99.90
53294;DHT22;39181;53.440;5.644;2023-07-20T15:39:23;20.90;99.90
53294;DHT22;39181;53.440;5.644;2023-07-20T15:41:50;21.00;99.90